Time;durP1;ratioP1;P1;durP2;ratioP2;P2;SDS_P1;SDS_P2;PMS_P1;PMS_P2;Temp;Humidity;BMP_temperature;BMP_pressure;BME280_temperature;BME280_humidity;BME280_pressure;Samples;Min_cycle;Max_cycle;Signal;HPM_P1;HPM_P2
2022/08/26 00:00:27;;;;;;;1.38;0.80;;;;;;;;;;5106339;28;20054;-51
2022/08/26 00:02:53;;;;;;;2.33;1.75;;;;;;;;;;5105121;28;20129;-48
2022/08/26 00:05:18;;;;;;;1.10;0.90;;;;;;;;;;5104718;28;20123;-50
2022/08/26 00:07:43;;;;;;;1.20;0.80;;;;;;;;;;5104502;28;20050;-53
2022/08/26 00:10:09;;;;;;;7.43;1.50;;;;;;;;;;5105021;28;20119;-52
2022/08/26 00:12:35;;;;;;;3.70;2.97;;;;;;;;;;5105726;28;20150;-50
2022/08/26 00:15:00;;;;;;;2.47;1.90;;;;;;;;;;5104404;28;20119;-50
2022/08/26 00:17:26;;;;;;;5.53;5.03;;;;;;;;;;5105131;28;20585;-49
2022/08/26 00:19:52;;;;;;;3.88;2.97;;;;;;;;;;5100925;28;21004;-50
2022/08/26 00:22:17;;;;;;;7.82;1.73;;;;;;;;;;5105199;28;20458;-48
2022/08/26 00:24:42;;;;;;;3.78;1.67;;;;;;;;;;5105538;28;20052;-53
2022/08/26 00:27:08;;;;;;;3.03;1.63;;;;;;;;;;5105004;28;20105;-47
2022/08/26 00:29:33;;;;;;;2.35;1.50;;;;;;;;;;5102433;28;20067;-53
2022/08/26 00:31:59;;;;;;;4.65;1.33;;;;;;;;;;5106908;28;20051;-49
2022/08/26 00:34:25;;;;;;;8.45;1.20;;;;;;;;;;5105320;28;20482;-48
2022/08/26 00:36:50;;;;;;;1.90;0.93;;;;;;;;;;5106325;28;20066;-46
2022/08/26 00:39:16;;;;;;;3.55;1.38;;;;;;;;;;5106108;28;20058;-50
2022/08/26 00:41:41;;;;;;;4.22;2.15;;;;;;;;;;5105978;28;20047;-49
2022/08/26 00:44:07;;;;;;;2.33;1.50;;;;;;;;;;5105961;28;20067;-52
2022/08/26 00:46:35;;;;;;;2.83;1.52;;;;;;;;;;5105669;28;20028;-53
2022/08/26 00:49:11;;;;;;;1.88;1.27;;;;;;;;;;5104504;28;20105;-48
2022/08/26 00:51:41;;;;;;;3.75;2.08;;;;;;;;;;5103879;28;20135;-48
2022/08/26 00:54:08;;;;;;;2.30;1.37;;;;;;;;;;5103126;28;20052;-54
2022/08/26 00:56:36;;;;;;;3.70;2.28;;;;;;;;;;5101896;28;20272;-49
2022/08/26 00:59:05;;;;;;;1.40;1.17;;;;;;;;;;5104475;28;20509;-50
2022/08/26 01:01:30;;;;;;;3.42;1.63;;;;;;;;;;5105900;28;20131;-48
2022/08/26 01:03:56;;;;;;;4.85;1.38;;;;;;;;;;5104288;28;20483;-51
2022/08/26 01:06:22;;;;;;;2.90;1.70;;;;;;;;;;5103529;28;20042;-50
2022/08/26 01:08:47;;;;;;;3.72;1.80;;;;;;;;;;5105696;28;20043;-49
2022/08/26 01:11:13;;;;;;;2.25;2.05;;;;;;;;;;5104071;28;20043;-47
2022/08/26 01:13:39;;;;;;;2.72;1.75;;;;;;;;;;5105424;28;20051;-51
2022/08/26 01:16:07;;;;;;;1.45;1.05;;;;;;;;;;5104813;28;20534;-51
2022/08/26 01:18:32;;;;;;;3.13;1.38;;;;;;;;;;5105292;28;20538;-50
2022/08/26 01:21:00;;;;;;;2.80;2.15;;;;;;;;;;5105246;28;20051;-49
2022/08/26 01:23:27;;;;;;;3.25;1.92;;;;;;;;;;5107462;28;20055;-48
2022/08/26 01:25:55;;;;;;;3.97;1.80;;;;;;;;;;5107982;28;20044;-46
2022/08/26 01:28:25;;;;;;;1.90;1.23;;;;;;;;;;5109079;28;20063;-49
2022/08/26 01:30:52;;;;;;;2.35;1.52;;;;;;;;;;5106178;28;20047;-49
2022/08/26 01:33:19;;;;;;;2.33;1.45;;;;;;;;;;5107554;28;20320;-50
2022/08/26 01:35:44;;;;;;;1.67;1.33;;;;;;;;;;5108199;28;20093;-48
2022/08/26 01:38:11;;;;;;;2.33;1.98;;;;;;;;;;5109077;28;20043;-52
2022/08/26 01:40:37;;;;;;;3.10;1.75;;;;;;;;;;5108139;28;20075;-50
2022/08/26 01:43:04;;;;;;;2.85;1.20;;;;;;;;;;5108000;27;20055;-51
2022/08/26 01:45:32;;;;;;;3.78;1.48;;;;;;;;;;5106077;28;20071;-47
2022/08/26 01:47:59;;;;;;;1.40;1.27;;;;;;;;;;5106293;28;20036;-50
2022/08/26 01:50:27;;;;;;;3.15;1.95;;;;;;;;;;5108853;28;20082;-48
2022/08/26 01:52:54;;;;;;;3.70;2.50;;;;;;;;;;5108745;28;20054;-50
2022/08/26 01:55:19;;;;;;;4.07;1.88;;;;;;;;;;5107937;28;20039;-50
2022/08/26 01:57:46;;;;;;;1.98;1.45;;;;;;;;;;5109039;28;20387;-51
2022/08/26 02:00:12;;;;;;;2.35;1.70;;;;;;;;;;5105955;28;20052;-50
2022/08/26 02:02:39;;;;;;;9.23;1.85;;;;;;;;;;5108184;28;20170;-50
2022/08/26 02:05:05;;;;;;;3.15;2.05;;;;;;;;;;5108631;28;20123;-50
2022/08/26 02:07:31;;;;;;;2.95;1.27;;;;;;;;;;5109092;28;20059;-51
2022/08/26 02:09:56;;;;;;;2.40;1.08;;;;;;;;;;5106963;28;20648;-51
2022/08/26 02:12:21;;;;;;;3.00;1.52;;;;;;;;;;5108953;28;20040;-47
2022/08/26 02:14:50;;;;;;;3.00;1.73;;;;;;;;;;5108798;28;20062;-51
2022/08/26 02:17:17;;;;;;;6.70;1.60;;;;;;;;;;5108592;28;20043;-51
2022/08/26 02:19:44;;;;;;;2.03;1.65;;;;;;;;;;5107941;28;20104;-47
2022/08/26 02:22:12;;;;;;;3.03;1.27;;;;;;;;;;5107136;28;20051;-53
2022/08/26 02:24:57;;;;;;;3.10;1.35;;;;;;;;;;5106241;28;20035;-50
2022/08/26 02:27:31;;;;;;;2.70;0.80;;;;;;;;;;5106118;28;20171;-50
2022/08/26 02:30:09;;;;;;;2.67;1.10;;;;;;;;;;5106860;28;20045;-50
2022/08/26 02:32:34;;;;;;;1.73;1.17;;;;;;;;;;5107170;28;20078;-50
2022/08/26 02:34:59;;;;;;;1.95;1.25;;;;;;;;;;5107764;28;20557;-52
2022/08/26 02:37:27;;;;;;;2.05;1.48;;;;;;;;;;5107572;28;20502;-48
2022/08/26 02:39:52;;;;;;;1.33;0.93;;;;;;;;;;5106659;28;20113;-55
2022/08/26 02:42:18;;;;;;;1.80;1.20;;;;;;;;;;5105023;28;20047;-53
2022/08/26 02:44:43;;;;;;;2.42;0.95;;;;;;;;;;5108026;28;20048;-50
2022/08/26 02:47:08;;;;;;;2.65;1.83;;;;;;;;;;5107315;28;20517;-49
2022/08/26 02:49:35;;;;;;;11.88;2.38;;;;;;;;;;5107645;28;20039;-49
2022/08/26 02:52:00;;;;;;;1.45;1.10;;;;;;;;;;5106694;28;20039;-48
2022/08/26 02:54:25;;;;;;;1.80;1.27;;;;;;;;;;5108168;28;20050;-49
2022/08/26 02:56:51;;;;;;;1.98;1.48;;;;;;;;;;5107348;28;20565;-49
2022/08/26 02:59:17;;;;;;;7.93;1.25;;;;;;;;;;5108207;28;20531;-48
2022/08/26 03:01:43;;;;;;;1.55;0.98;;;;;;;;;;5107681;28;20078;-46
2022/08/26 03:04:10;;;;;;;1.15;0.73;;;;;;;;;;5108082;28;20066;-49
2022/08/26 03:06:36;;;;;;;7.47;1.55;;;;;;;;;;5106487;28;20502;-48
2022/08/26 03:09:01;;;;;;;2.72;1.27;;;;;;;;;;5106770;28;20092;-51
2022/08/26 03:11:27;;;;;;;14.93;3.05;;;;;;;;;;5107681;28;20055;-51
2022/08/26 03:13:54;;;;;;;3.83;2.28;;;;;;;;;;5105696;28;20066;-51
2022/08/26 03:16:19;;;;;;;2.80;1.77;;;;;;;;;;5107702;28;20067;-48
2022/08/26 03:18:45;;;;;;;3.25;2.10;;;;;;;;;;5107739;28;20075;-47
2022/08/26 03:21:11;;;;;;;6.40;2.75;;;;;;;;;;5107239;28;20055;-53
2022/08/26 03:23:37;;;;;;;2.55;2.28;;;;;;;;;;5107684;28;20549;-48
2022/08/26 03:26:03;;;;;;;5.88;2.50;;;;;;;;;;5106952;28;20182;-48
2022/08/26 03:28:28;;;;;;;2.67;1.95;;;;;;;;;;5106958;28;20122;-49
2022/08/26 03:30:54;;;;;;;2.38;1.50;;;;;;;;;;5107186;28;20128;-47
2022/08/26 03:33:19;;;;;;;5.80;1.75;;;;;;;;;;5107017;28;20494;-51
2022/08/26 03:35:46;;;;;;;3.45;1.88;;;;;;;;;;5107016;28;20044;-50
2022/08/26 03:38:12;;;;;;;3.22;1.60;;;;;;;;;;5104337;28;20072;-50
2022/08/26 03:40:37;;;;;;;2.13;1.40;;;;;;;;;;5105377;28;20132;-49
2022/08/26 03:43:04;;;;;;;5.18;2.95;;;;;;;;;;5106038;28;20074;-49
2022/08/26 03:45:29;;;;;;;3.30;2.08;;;;;;;;;;5105105;28;20036;-51
2022/08/26 03:47:55;;;;;;;2.13;1.67;;;;;;;;;;5106907;28;20055;-51
2022/08/26 03:50:21;;;;;;;2.22;1.80;;;;;;;;;;5106877;28;20043;-51
2022/08/26 03:52:47;;;;;;;4.35;2.60;;;;;;;;;;5106313;28;20055;-51
2022/08/26 03:55:13;;;;;;;5.15;2.20;;;;;;;;;;5103205;28;20044;-48
2022/08/26 03:57:38;;;;;;;3.55;2.00;;;;;;;;;;5106220;28;20502;-50
2022/08/26 04:00:05;;;;;;;2.60;1.50;;;;;;;;;;5105955;28;20047;-54
2022/08/26 04:02:31;;;;;;;5.65;1.85;;;;;;;;;;5105223;28;20047;-52
2022/08/26 04:04:56;;;;;;;2.33;1.63;;;;;;;;;;5105231;28;20627;-49
2022/08/26 04:07:23;;;;;;;2.58;2.13;;;;;;;;;;5105823;28;20055;-52
2022/08/26 04:09:49;;;;;;;3.88;1.48;;;;;;;;;;5104759;28;20047;-50
2022/08/26 04:12:14;;;;;;;3.58;1.65;;;;;;;;;;5105807;28;20046;-50
2022/08/26 04:14:39;;;;;;;1.88;1.33;;;;;;;;;;5106377;28;21073;-51
2022/08/26 04:17:05;;;;;;;2.08;1.75;;;;;;;;;;5105304;28;20113;-52
2022/08/26 04:19:31;;;;;;;2.25;1.92;;;;;;;;;;5106119;28;20118;-45
2022/08/26 04:21:57;;;;;;;2.30;1.73;;;;;;;;;;5106336;28;20054;-48
2022/08/26 04:24:25;;;;;;;6.50;2.22;;;;;;;;;;5104996;28;20047;-51
2022/08/26 04:26:50;;;;;;;1.90;1.35;;;;;;;;;;5106576;28;20040;-51
2022/08/26 04:29:16;;;;;;;3.95;2.38;;;;;;;;;;5105065;28;20040;-48
2022/08/26 04:31:42;;;;;;;2.25;1.95;;;;;;;;;;5105064;28;20040;-49
2022/08/26 04:34:08;;;;;;;3.20;2.10;;;;;;;;;;5106417;28;20039;-48
2022/08/26 04:36:34;;;;;;;3.47;1.85;;;;;;;;;;5104475;28;20132;-49
2022/08/26 04:39:01;;;;;;;3.15;1.70;;;;;;;;;;5103987;28;20516;-54
2022/08/26 04:41:27;;;;;;;3.92;2.75;;;;;;;;;;5102765;28;20040;-51
2022/08/26 04:43:52;;;;;;;3.53;2.28;;;;;;;;;;5105531;28;20040;-50
2022/08/26 04:46:20;;;;;;;4.78;1.75;;;;;;;;;;5105665;28;20055;-52
2022/08/26 04:48:47;;;;;;;4.97;2.20;;;;;;;;;;5104476;28;20138;-49
2022/08/26 04:51:12;;;;;;;3.20;2.63;;;;;;;;;;5083664;28;20044;-49
2022/08/26 04:53:38;;;;;;;8.45;2.80;;;;;;;;;;5104925;28;20572;-47
2022/08/26 04:56:03;;;;;;;2.90;2.22;;;;;;;;;;5104586;28;20048;-47
2022/08/26 04:58:29;;;;;;;3.15;1.88;;;;;;;;;;5106552;28;20046;-50
2022/08/26 05:00:55;;;;;;;5.15;2.05;;;;;;;;;;5108888;28;20092;-49
2022/08/26 05:03:21;;;;;;;4.43;1.60;;;;;;;;;;5109296;28;20044;-48
2022/08/26 05:05:48;;;;;;;4.10;3.15;;;;;;;;;;5108717;28;20475;-46
2022/08/26 05:08:14;;;;;;;4.68;3.67;;;;;;;;;;5109001;28;20140;-49
2022/08/26 05:10:47;;;;;;;10.32;4.03;;;;;;;;;;5107766;28;20143;-46
2022/08/26 05:13:13;;;;;;;6.25;3.10;;;;;;;;;;5107193;28;20035;-47
2022/08/26 05:15:38;;;;;;;5.57;1.95;;;;;;;;;;5109622;28;20036;-46
2022/08/26 05:18:05;;;;;;;7.45;2.50;;;;;;;;;;5108693;28;20685;-48
2022/08/26 05:20:33;;;;;;;6.57;3.10;;;;;;;;;;5107223;28;20056;-47
2022/08/26 05:22:59;;;;;;;5.63;2.92;;;;;;;;;;5108053;28;20039;-53
2022/08/26 05:25:25;;;;;;;2.95;1.75;;;;;;;;;;5108982;28;20036;-52
2022/08/26 05:27:50;;;;;;;3.97;2.67;;;;;;;;;;5107914;28;20969;-48
2022/08/26 05:30:16;;;;;;;3.70;1.98;;;;;;;;;;5108014;28;20547;-52
2022/08/26 05:32:41;;;;;;;9.23;3.03;;;;;;;;;;5108177;27;20048;-46
2022/08/26 05:35:06;;;;;;;7.53;2.92;;;;;;;;;;5108345;28;20038;-51
2022/08/26 05:37:32;;;;;;;8.07;2.97;;;;;;;;;;5108517;28;20134;-48
2022/08/26 05:39:57;;;;;;;4.70;3.78;;;;;;;;;;5107913;28;20050;-50
2022/08/26 05:42:22;;;;;;;8.23;2.67;;;;;;;;;;5108384;28;20071;-46
2022/08/26 05:44:51;;;;;;;2.88;1.88;;;;;;;;;;5107308;28;20055;-50
2022/08/26 05:47:17;;;;;;;1.08;0.88;;;;;;;;;;5108673;28;20138;-53
2022/08/26 05:49:42;;;;;;;1.95;1.55;;;;;;;;;;5108328;28;20177;-50
2022/08/26 05:52:07;;;;;;;4.53;2.35;;;;;;;;;;5107942;28;21020;-48
2022/08/26 05:54:33;;;;;;;5.72;2.15;;;;;;;;;;5107092;28;20465;-51
2022/08/26 05:56:59;;;;;;;3.35;1.98;;;;;;;;;;5107332;28;20051;-45
2022/08/26 05:59:24;;;;;;;9.32;3.35;;;;;;;;;;5107594;28;20075;-49
2022/08/26 06:01:49;;;;;;;4.07;1.70;;;;;;;;;;5108934;28;20532;-43
2022/08/26 06:04:15;;;;;;;6.18;2.10;;;;;;;;;;5089477;28;20047;-44
2022/08/26 06:06:41;;;;;;;17.00;3.55;;;;;;;;;;5107353;28;20053;-46
2022/08/26 06:09:07;;;;;;;9.50;3.30;;;;;;;;;;5105728;28;20313;-46
2022/08/26 06:11:32;;;;;;;6.20;2.60;;;;;;;;;;5108811;28;20580;-44
2022/08/26 06:14:00;;;;;;;7.85;2.97;;;;;;;;;;5106284;28;20056;-46
2022/08/26 06:16:25;;;;;;;4.28;2.85;;;;;;;;;;5108558;28;20039;-47
2022/08/26 06:18:51;;;;;;;6.05;2.70;;;;;;;;;;5106184;28;20522;-43
2022/08/26 06:21:18;;;;;;;8.35;2.30;;;;;;;;;;5106624;28;20070;-45
2022/08/26 06:26:29;;;;;;;16.50;9.55;;;;;;;;;;5106226;28;20101;-45
2022/08/26 06:28:54;;;;;;;16.55;13.05;;;;;;;;;;5104491;28;20047;-45
2022/08/26 06:31:21;;;;;;;27.08;17.23;;;;;;;;;;5106867;28;20466;-44
2022/08/26 06:33:46;;;;;;;27.02;16.55;;;;;;;;;;5104133;28;20047;-45
2022/08/26 06:36:16;;;;;;;13.63;8.93;;;;;;;;;;5108070;28;20039;-46
2022/08/26 06:38:41;;;;;;;8.25;6.72;;;;;;;;;;5106506;28;20411;-47
2022/08/26 06:41:10;;;;;;;12.63;10.07;;;;;;;;;;5104332;28;20052;-45
2022/08/26 06:43:35;;;;;;;6.95;5.78;;;;;;;;;;5101620;28;20093;-47
2022/08/26 06:46:02;;;;;;;6.97;3.65;;;;;;;;;;5107419;28;20047;-50
2022/08/26 06:48:28;;;;;;;12.13;4.68;;;;;;;;;;5107036;28;20059;-46
2022/08/26 06:51:02;;;;;;;8.13;4.43;;;;;;;;;;5106585;28;20051;-48
2022/08/26 06:53:27;;;;;;;31.42;9.93;;;;;;;;;;5105447;28;20574;-44
2022/08/26 06:55:53;;;;;;;11.80;6.22;;;;;;;;;;5106480;27;20039;-44
2022/08/26 06:58:18;;;;;;;10.48;6.72;;;;;;;;;;5078865;28;20059;-45
2022/08/26 07:00:43;;;;;;;16.92;7.53;;;;;;;;;;5105381;28;20044;-48
2022/08/26 07:03:09;;;;;;;10.55;6.95;;;;;;;;;;5105767;28;20043;-45
2022/08/26 07:05:34;;;;;;;9.07;4.32;;;;;;;;;;5105624;28;20039;-44
2022/08/26 07:08:00;;;;;;;5.30;3.88;;;;;;;;;;5105937;28;20520;-42
2022/08/26 07:10:25;;;;;;;6.07;5.35;;;;;;;;;;5105337;28;20575;-45
2022/08/26 07:12:51;;;;;;;7.35;5.22;;;;;;;;;;5105750;28;20063;-42
2022/08/26 07:15:16;;;;;;;4.38;3.83;;;;;;;;;;5106359;28;20047;-44
2022/08/26 07:17:41;;;;;;;21.63;3.47;;;;;;;;;;5105707;28;20036;-42
2022/08/26 07:20:07;;;;;;;3.22;2.58;;;;;;;;;;5104061;28;20434;-42
2022/08/26 07:22:33;;;;;;;7.43;2.63;;;;;;;;;;5103903;28;20043;-42
2022/08/26 07:24:59;;;;;;;3.50;2.13;;;;;;;;;;5105718;28;20040;-44
2022/08/26 07:27:24;;;;;;;7.25;3.78;;;;;;;;;;5105546;28;20104;-44
2022/08/26 07:29:49;;;;;;;14.88;8.93;;;;;;;;;;5106257;28;20387;-42
2022/08/26 07:32:15;;;;;;;27.75;17.00;;;;;;;;;;5106947;28;20122;-44
2022/08/26 07:34:41;;;;;;;15.63;10.85;;;;;;;;;;5105698;28;20059;-50
2022/08/26 07:37:06;;;;;;;21.67;12.88;;;;;;;;;;5106573;28;20063;-44
2022/08/26 07:39:31;;;;;;;19.02;5.05;;;;;;;;;;5106185;28;20103;-43
2022/08/26 07:41:57;;;;;;;8.80;3.40;;;;;;;;;;5104937;28;20039;-47
2022/08/26 07:44:23;;;;;;;2.97;1.90;;;;;;;;;;5105777;28;20067;-48
2022/08/26 07:46:48;;;;;;;8.02;2.10;;;;;;;;;;5103332;28;20075;-47
2022/08/26 07:49:14;;;;;;;8.65;2.97;;;;;;;;;;5104908;28;20391;-47
2022/08/26 07:51:39;;;;;;;2.67;2.47;;;;;;;;;;5104286;28;20073;-46
2022/08/26 07:54:05;;;;;;;2.90;1.55;;;;;;;;;;5105876;28;20050;-44
2022/08/26 07:56:31;;;;;;;4.63;3.63;;;;;;;;;;5104420;28;20507;-43
2022/08/26 07:58:56;;;;;;;4.43;3.85;;;;;;;;;;5104436;28;20047;-43
2022/08/26 08:01:23;;;;;;;4.55;3.75;;;;;;;;;;5101728;28;20117;-46
2022/08/26 08:03:50;;;;;;;12.73;4.43;;;;;;;;;;5101537;28;20043;-42
2022/08/26 08:06:16;;;;;;;16.20;4.88;;;;;;;;;;5105526;28;20035;-46
2022/08/26 08:08:42;;;;;;;21.10;3.92;;;;;;;;;;5105048;28;20050;-46
2022/08/26 08:11:07;;;;;;;6.10;3.13;;;;;;;;;;5105180;28;20388;-44
2022/08/26 08:13:34;;;;;;;3.42;2.15;;;;;;;;;;5105835;28;20056;-45
2022/08/26 08:15:59;;;;;;;10.63;6.93;;;;;;;;;;5103616;28;20367;-44
2022/08/26 08:18:27;;;;;;;5.97;3.80;;;;;;;;;;5105322;28;20048;-46
2022/08/26 08:20:52;;;;;;;4.90;3.25;;;;;;;;;;5105748;28;20053;-44
2022/08/26 08:23:17;;;;;;;6.90;4.75;;;;;;;;;;5103607;28;20055;-42
2022/08/26 08:25:43;;;;;;;6.00;5.20;;;;;;;;;;5104466;28;20487;-43
2022/08/26 08:28:08;;;;;;;8.73;4.30;;;;;;;;;;5105666;28;20043;-44
2022/08/26 08:30:36;;;;;;;4.50;2.97;;;;;;;;;;5105895;28;20482;-43
2022/08/26 08:33:02;;;;;;;3.85;3.10;;;;;;;;;;5100277;28;20039;-43
2022/08/26 08:35:27;;;;;;;4.25;2.55;;;;;;;;;;5105881;28;20035;-43
2022/08/26 08:37:54;;;;;;;5.72;4.25;;;;;;;;;;5105365;28;20485;-41
2022/08/26 08:40:20;;;;;;;5.13;3.88;;;;;;;;;;5105461;28;20039;-47
2022/08/26 08:42:45;;;;;;;6.05;3.65;;;;;;;;;;5106103;28;20039;-44
2022/08/26 08:45:37;;;;;;;12.95;6.47;;;;;;;;;;5105034;28;20478;-43
2022/08/26 08:48:05;;;;;;;5.55;3.97;;;;;;;;;;5100247;28;20067;-43
2022/08/26 08:50:32;;;;;;;9.88;5.07;;;;;;;;;;5105763;28;20043;-46
2022/08/26 08:53:03;;;;;;;8.02;5.20;;;;;;;;;;5105164;28;20055;-42
2022/08/26 08:55:35;;;;;;;13.15;5.35;;;;;;;;;;5104786;28;20071;-46
2022/08/26 08:58:04;;;;;;;5.68;3.90;;;;;;;;;;5106354;28;20135;-42
2022/08/26 09:00:37;;;;;;;7.25;5.35;;;;;;;;;;5104479;28;20548;-48
2022/08/26 09:03:09;;;;;;;6.05;3.28;;;;;;;;;;5104450;28;20047;-47
2022/08/26 09:05:40;;;;;;;8.93;4.55;;;;;;;;;;5105033;28;20123;-43
2022/08/26 09:08:15;;;;;;;18.63;5.85;;;;;;;;;;5105441;28;20054;-44
2022/08/26 09:10:48;;;;;;;11.57;7.10;;;;;;;;;;5105276;28;20048;-46
2022/08/26 09:13:14;;;;;;;5.32;4.43;;;;;;;;;;5103742;28;20123;-45
2022/08/26 09:15:58;;;;;;;20.45;11.45;;;;;;;;;;5103180;28;20109;-45
2022/08/26 09:18:30;;;;;;;15.77;14.05;;;;;;;;;;5101853;28;20488;-46
2022/08/26 09:21:02;;;;;;;33.40;15.82;;;;;;;;;;5104978;28;20047;-44
2022/08/26 09:23:28;;;;;;;14.43;10.80;;;;;;;;;;5102034;28;20051;-47
2022/08/26 09:25:55;;;;;;;15.02;6.82;;;;;;;;;;5104827;28;20044;-44
2022/08/26 09:28:21;;;;;;;8.68;4.72;;;;;;;;;;5104161;28;20050;-44
2022/08/26 09:30:57;;;;;;;12.35;9.73;;;;;;;;;;5105011;28;20062;-45
2022/08/26 09:33:26;;;;;;;10.18;5.75;;;;;;;;;;5104461;28;20055;-47
2022/08/26 09:36:10;;;;;;;4.95;3.60;;;;;;;;;;5105349;28;20410;-43
2022/08/26 09:38:35;;;;;;;3.75;2.92;;;;;;;;;;5104235;28;20039;-45
2022/08/26 09:41:02;;;;;;;3.95;3.13;;;;;;;;;;5104662;28;20048;-45
2022/08/26 09:43:28;;;;;;;13.07;3.45;;;;;;;;;;5104934;28;20127;-47
2022/08/26 09:46:11;;;;;;;3.63;3.15;;;;;;;;;;5109265;28;20134;-47
2022/08/26 09:48:38;;;;;;;4.05;2.20;;;;;;;;;;5108434;28;20043;-47
2022/08/26 09:51:06;;;;;;;5.65;2.63;;;;;;;;;;5107490;28;20059;-51
2022/08/26 09:53:35;;;;;;;16.73;4.10;;;;;;;;;;5105824;28;20124;-46
2022/08/26 09:56:33;;;;;;;1.75;1.23;;;;;;;;;;5107817;28;20098;-51
2022/08/26 09:59:00;;;;;;;2.75;1.98;;;;;;;;;;5094245;28;20062;-49
2022/08/26 10:01:25;;;;;;;3.72;1.73;;;;;;;;;;5107180;28;20044;-46
2022/08/26 10:03:50;;;;;;;2.63;2.42;;;;;;;;;;5108084;28;20388;-49
2022/08/26 10:06:16;;;;;;;7.03;2.05;;;;;;;;;;5107294;28;20055;-48
2022/08/26 10:08:42;;;;;;;3.38;2.45;;;;;;;;;;5107275;28;20097;-47
2022/08/26 10:11:27;;;;;;;13.90;3.38;;;;;;;;;;5108599;28;20056;-47
2022/08/26 10:13:58;;;;;;;3.78;2.70;;;;;;;;;;5106131;28;20139;-50
2022/08/26 10:16:23;;;;;;;;;;;;;;;;;;5108506;28;20151;-51
2022/08/26 10:18:49;;;;;;;5.13;1.23;;;;;;;;;;5107480;28;20447;-48
2022/08/26 10:21:21;;;;;;;2.47;1.60;;;;;;;;;;5108097;28;20063;-48
2022/08/26 10:23:49;;;;;;;4.03;2.35;;;;;;;;;;5106459;28;20062;-49
2022/08/26 10:26:18;;;;;;;2.35;1.83;;;;;;;;;;5107821;28;20119;-51
2022/08/26 10:29:09;;;;;;;2.35;1.52;;;;;;;;;;5107342;28;20072;-53
2022/08/26 10:31:35;;;;;;;7.15;2.95;;;;;;;;;;5101347;28;20135;-52
2022/08/26 10:34:00;;;;;;;4.53;2.78;;;;;;;;;;5107747;28;20154;-51
2022/08/26 10:39:15;;;;;;;3.22;2.15;;;;;;;;;;5105421;28;20123;-58
2022/08/26 10:41:42;;;;;;;3.60;1.80;;;;;;;;;;5108419;28;20055;-59
2022/08/26 10:44:11;;;;;;;5.85;2.10;;;;;;;;;;5105648;28;20044;-58
2022/08/26 10:46:43;;;;;;;8.00;5.55;;;;;;;;;;5107480;28;20055;-58
2022/08/26 10:49:09;;;;;;;1.67;1.08;;;;;;;;;;5107039;28;20071;-57
2022/08/26 10:51:41;;;;;;;1.58;0.98;;;;;;;;;;5107340;28;20499;-58
2022/08/26 10:54:19;;;;;;;7.85;2.03;;;;;;;;;;5103899;28;20164;-58
2022/08/26 10:56:50;;;;;;;2.13;1.38;;;;;;;;;;5107190;28;20388;-58
2022/08/26 10:59:27;;;;;;;6.95;1.85;;;;;;;;;;5105934;28;20082;-58
2022/08/26 11:02:10;;;;;;;10.27;9.27;;;;;;;;;;5107562;28;20113;-58
2022/08/26 11:04:53;;;;;;;3.28;2.17;;;;;;;;;;5101491;28;20492;-58
2022/08/26 11:07:36;;;;;;;2.22;1.52;;;;;;;;;;5106933;28;20677;-58
2022/08/26 11:10:01;;;;;;;3.22;1.38;;;;;;;;;;5106391;28;20040;-58
2022/08/26 11:12:35;;;;;;;2.80;0.82;;;;;;;;;;5107433;28;20044;-58
2022/08/26 11:15:06;;;;;;;2.53;1.58;;;;;;;;;;5105665;28;20097;-58
2022/08/26 11:17:43;;;;;;;1.50;0.98;;;;;;;;;;5107234;28;20438;-58
2022/08/26 11:20:10;;;;;;;4.70;2.03;;;;;;;;;;5106377;28;20056;-58
2022/08/26 11:22:37;;;;;;;3.15;1.58;;;;;;;;;;5105976;28;20040;-58
2022/08/26 11:25:13;;;;;;;1.90;1.30;;;;;;;;;;5106735;28;20047;-58
2022/08/26 11:27:38;;;;;;;2.13;1.42;;;;;;;;;;5104346;28;20126;-58
2022/08/26 11:30:07;;;;;;;2.25;1.63;;;;;;;;;;5106192;28;20126;-58
2022/08/26 11:32:32;;;;;;;5.78;1.40;;;;;;;;;;5105202;28;20545;-58
2022/08/26 11:34:59;;;;;;;1.55;1.05;;;;;;;;;;5107577;28;20063;-58
2022/08/26 11:37:32;;;;;;;2.38;1.40;;;;;;;;;;5106414;28;20099;-57
2022/08/26 11:39:57;;;;;;;2.22;1.50;;;;;;;;;;5105299;28;20153;-58
2022/08/26 11:42:30;;;;;;;3.65;3.22;;;;;;;;;;5106926;28;20065;-57
2022/08/26 11:44:56;;;;;;;2.40;1.63;;;;;;;;;;5106898;28;20044;-59
2022/08/26 11:47:26;;;;;;;0.93;0.70;;;;;;;;;;5106542;28;20163;-59
2022/08/26 11:50:13;;;;;;;4.57;1.00;;;;;;;;;;5104371;28;20027;-58
2022/08/26 11:52:38;;;;;;;1.90;1.05;;;;;;;;;;5106136;28;20043;-58
2022/08/26 11:55:08;;;;;;;2.00;1.17;;;;;;;;;;5104867;27;20100;-58
2022/08/26 11:57:34;;;;;;;;;;;;;;;;;;5107429;27;20656;-57
2022/08/26 12:00:00;;;;;;;1.00;0.87;;;;;;;;;;5109858;27;19922;-57
2022/08/26 12:02:26;;;;;;;3.30;0.70;;;;;;;;;;5105755;28;20222;-58
2022/08/26 12:04:52;;;;;;;1.88;0.60;;;;;;;;;;5105541;27;20035;-59
2022/08/26 12:07:21;;;;;;;0.57;0.40;;;;;;;;;;5106782;27;20126;-58
2022/08/26 12:10:05;;;;;;;1.45;0.93;;;;;;;;;;5104680;28;20712;-58
2022/08/26 12:12:36;;;;;;;2.33;0.88;;;;;;;;;;5106583;28;20031;-60
2022/08/26 12:15:01;;;;;;;;;;;;;;;;;;5099782;28;20518;-59
2022/08/26 12:17:26;;;;;;;1.23;0.77;;;;;;;;;;5105986;28;19915;-59
2022/08/26 12:19:52;;;;;;;5.93;1.40;;;;;;;;;;5104649;28;20047;-58
2022/08/26 12:22:17;;;;;;;6.50;0.98;;;;;;;;;;5104958;28;20404;-59
2022/08/26 12:24:54;;;;;;;2.72;1.05;;;;;;;;;;5103509;28;20530;-59
2022/08/26 12:27:19;;;;;;;1.23;0.73;;;;;;;;;;5105695;28;20208;-59
2022/08/26 12:29:44;;;;;;;2.17;1.45;;;;;;;;;;5105772;28;20526;-58
2022/08/26 12:32:16;;;;;;;2.08;1.10;;;;;;;;;;5103762;28;20110;-59
2022/08/26 12:34:42;;;;;;;2.45;1.08;;;;;;;;;;5100734;28;20047;-58
2022/08/26 12:37:09;;;;;;;5.95;1.25;;;;;;;;;;5104397;28;20048;-58
2022/08/26 12:39:36;;;;;;;3.25;1.08;;;;;;;;;;5104684;28;20134;-59
2022/08/26 12:42:04;;;;;;;3.75;1.23;;;;;;;;;;5104741;28;20039;-58
2022/08/26 12:44:50;;;;;;;8.20;1.50;;;;;;;;;;5104637;28;20036;-59
2022/08/26 12:47:18;;;;;;;5.00;0.50;;;;;;;;;;5085094;28;20040;-58
2022/08/26 12:49:43;;;;;;;1.25;0.70;;;;;;;;;;5104730;28;20505;-58
2022/08/26 12:52:31;;;;;;;2.22;1.02;;;;;;;;;;5105007;28;20055;-58
2022/08/26 12:54:58;;;;;;;1.52;1.23;;;;;;;;;;5102877;28;20059;-58
2022/08/26 12:57:25;;;;;;;1.25;0.70;;;;;;;;;;5103718;28;20043;-58
2022/08/26 12:59:50;;;;;;;3.22;0.60;;;;;;;;;;5104879;28;20062;-59
2022/08/26 13:02:42;;;;;;;2.50;1.17;;;;;;;;;;5104106;28;20449;-58
2022/08/26 13:05:18;;;;;;;3.13;1.10;;;;;;;;;;5101973;28;20051;-59
2022/08/26 13:07:43;;;;;;;1.27;1.02;;;;;;;;;;5106185;28;20047;-59
2022/08/26 13:10:29;;;;;;;2.13;0.70;;;;;;;;;;5104711;28;20062;-59
2022/08/26 13:12:54;;;;;;;1.83;1.25;;;;;;;;;;5104002;28;20052;-59
2022/08/26 13:15:19;;;;;;;5.50;1.63;;;;;;;;;;5105514;28;20039;-59
2022/08/26 13:17:45;;;;;;;2.03;0.80;;;;;;;;;;5104021;28;20821;-59
2022/08/26 13:20:10;;;;;;;2.75;1.25;;;;;;;;;;5109449;28;20039;-59
2022/08/26 13:22:36;;;;;;;2.03;0.65;;;;;;;;;;5109511;28;20498;-59
2022/08/26 13:25:02;;;;;;;2.50;0.95;;;;;;;;;;5107491;28;20047;-58
2022/08/26 13:27:27;;;;;;;1.42;0.98;;;;;;;;;;5109956;28;20047;-59
2022/08/26 13:29:53;;;;;;;4.30;0.82;;;;;;;;;;5108429;28;20035;-58
2022/08/26 13:32:21;;;;;;;1.45;0.90;;;;;;;;;;5107461;28;20142;-59
2022/08/26 13:34:47;;;;;;;1.92;1.17;;;;;;;;;;5108768;28;20058;-58
2022/08/26 13:37:12;;;;;;;8.23;1.30;;;;;;;;;;5107570;28;20066;-59
2022/08/26 13:39:38;;;;;;;2.88;0.70;;;;;;;;;;5106936;28;20055;-58
2022/08/26 13:42:03;;;;;;;7.40;1.50;;;;;;;;;;5086396;28;20039;-59
2022/08/26 13:44:28;;;;;;;5.15;1.38;;;;;;;;;;5108354;28;20043;-58
2022/08/26 13:46:54;;;;;;;2.33;0.65;;;;;;;;;;5108808;28;20047;-59
2022/08/26 13:49:19;;;;;;;2.03;1.25;;;;;;;;;;5108093;28;20050;-58
2022/08/26 13:51:45;;;;;;;2.80;0.88;;;;;;;;;;5106711;28;20550;-54
2022/08/26 13:54:10;;;;;;;4.07;1.13;;;;;;;;;;5108179;27;20070;-54
2022/08/26 13:56:36;;;;;;;2.53;1.35;;;;;;;;;;5107696;28;20531;-59
2022/08/26 13:59:01;;;;;;;1.50;1.08;;;;;;;;;;5107596;28;20062;-59
2022/08/26 14:01:28;;;;;;;4.57;1.85;;;;;;;;;;5108498;28;20063;-59
2022/08/26 14:03:54;;;;;;;3.75;1.50;;;;;;;;;;5106333;28;20112;-57
2022/08/26 14:06:19;;;;;;;7.60;1.20;;;;;;;;;;5105703;28;20035;-57
2022/08/26 14:08:45;;;;;;;9.07;1.98;;;;;;;;;;5109167;28;20039;-58
2022/08/26 14:11:11;;;;;;;3.85;2.13;;;;;;;;;;5108745;28;20059;-58
2022/08/26 14:13:36;;;;;;;2.55;1.67;;;;;;;;;;5108049;28;20060;-59
2022/08/26 14:16:03;;;;;;;2.40;1.05;;;;;;;;;;5108280;28;20271;-58
2022/08/26 14:18:31;;;;;;;0.57;0.45;;;;;;;;;;5108568;28;20058;-58
2022/08/26 14:20:56;;;;;;;13.73;2.22;;;;;;;;;;5107929;28;20547;-58
2022/08/26 14:23:22;;;;;;;1.40;0.73;;;;;;;;;;5105990;28;20561;-59
2022/08/26 14:25:47;;;;;;;1.08;0.80;;;;;;;;;;5108785;28;20120;-58
2022/08/26 14:28:12;;;;;;;5.25;2.28;;;;;;;;;;5106749;28;20039;-58
2022/08/26 14:30:39;;;;;;;6.25;1.73;;;;;;;;;;5105137;28;20101;-58
2022/08/26 14:33:05;;;;;;;7.75;2.35;;;;;;;;;;5105196;28;20600;-58
2022/08/26 14:35:30;;;;;;;9.02;1.75;;;;;;;;;;5108599;28;20043;-58
2022/08/26 14:37:56;;;;;;;3.10;1.05;;;;;;;;;;5108049;28;20077;-58
2022/08/26 14:40:21;;;;;;;3.30;1.83;;;;;;;;;;5089178;28;20560;-58
2022/08/26 14:42:48;;;;;;;3.70;1.27;;;;;;;;;;5104504;28;20048;-58
2022/08/26 14:45:16;;;;;;;6.07;1.88;;;;;;;;;;5107977;28;20051;-59
2022/08/26 14:47:46;;;;;;;4.30;1.83;;;;;;;;;;5107080;28;20055;-59
2022/08/26 14:50:13;;;;;;;4.43;1.35;;;;;;;;;;5104349;28;20101;-59